Time,TemperatureF,DewpointF,PressureIn,WindDirection,WindDirectionDegrees,WindSpeedMPH,WindSpeedGustMPH,Humidity,HourlyPrecipIn,Conditions,Clouds,dailyrainin,SolarRadiationWatts/m^2,SoftwareType,DateUTC
2013-04-17 00:00:00,67.9,60.4,30.27,North,11,2.0,4.0,77,0.00,,SCT,0.00,0.00,VWS V14.01,2013-04-17 04:00:00,
2013-04-17 00:05:00,67.9,60.8,30.27,NNE,24,0.0,4.0,78,0.00,,SCT,0.00,0.00,VWS V14.01,2013-04-17 04:05:00,
2013-04-17 00:10:00,68.0,60.5,30.27,NNE,14,1.0,5.0,77,0.00,,SCT,0.00,0.00,VWS V14.01,2013-04-17 04:10:00,
2013-04-17 00:15:00,67.8,60.7,30.28,North,5,0.0,5.0,78,0.00,,SCT,0.00,0.00,VWS V14.01,2013-04-17 04:15:00,
2013-04-17 00:20:00,67.8,60.7,30.27,NNW,338,1.0,10.0,78,0.00,,SCT,0.00,0.00,VWS V14.01,2013-04-17 04:20:00,
2013-04-17 00:25:00,68.2,60.7,30.27,NNE,23,4.0,10.0,77,0.00,,SCT,0.00,0.00,VWS V14.01,2013-04-17 04:25:00,
2013-04-17 00:30:00,68.6,60.7,30.28,NNE,13,5.0,10.0,76,0.00,,SCT,0.00,0.00,VWS V14.01,2013-04-17 04:30:00,
2013-04-17 00:35:00,68.9,61.0,30.27,NNE,30,5.0,10.0,76,0.00,,SCT,0.00,0.00,VWS V14.01,2013-04-17 04:35:00,
2013-04-17 00:40:00,68.9,61.0,30.27,NNE,32,2.0,10.0,76,0.00,,SCT,0.00,0.00,VWS V14.01,2013-04-17 04:40:00,
2013-04-17 00:45:00,68.4,60.5,30.27,NE,41,5.0,10.0,76,0.00,,SCT,0.00,0.00,VWS V14.01,2013-04-17 04:45:00,
2013-04-17 00:50:00,68.3,60.8,30.27,NNE,20,3.0,10.0,77,0.00,,SCT,0.00,0.00,VWS V14.01,2013-04-17 04:50:00,
2013-04-17 00:55:00,68.1,60.6,30.28,NE,36,3.0,4.0,77,0.00,,SCT,0.00,0.00,VWS V14.01,2013-04-17 04:55:00,
2013-04-17 01:00:00,68.0,60.9,30.28,NNE,32,3.0,8.0,78,0.00,,SCT,0.00,0.00,VWS V14.01,2013-04-17 05:00:00,
2013-04-17 01:05:00,67.7,60.6,30.29,ESE,106,7.0,8.0,78,0.00,,SCT,0.00,0.00,VWS V14.01,2013-04-17 05:05:00,
2013-04-17 01:10:00,66.9,60.5,30.31,ESE,111,8.0,13.0,80,0.00,,SCT,0.00,0.00,VWS V14.01,2013-04-17 05:10:00,
2013-04-17 01:15:00,66.2,60.5,30.31,ENE,68,2.0,13.0,82,0.00,,SCT,0.00,0.00,VWS V14.01,2013-04-17 05:15:00,
2013-04-17 01:20:00,65.8,60.5,30.32,NE,56,2.0,13.0,83,0.00,,SCT,0.00,0.00,VWS V14.01,2013-04-17 05:20:00,
2013-04-17 01:25:00,65.7,60.4,30.32,NE,55,3.0,13.0,83,0.00,,SCT,0.00,0.00,VWS V14.01,2013-04-17 05:25:00,
2013-04-17 01:30:00,66.0,60.7,30.31,NNE,33,2.0,13.0,83,0.00,,SCT,0.00,0.00,VWS V14.01,2013-04-17 05:30:00,
2013-04-17 01:35:00,65.7,60.7,30.30,NNE,24,1.0,13.0,84,0.00,,SCT,0.00,0.00,VWS V14.01,2013-04-17 05:35:00,
2013-04-17 01:40:00,65.5,60.5,30.29,NW,318,6.0,13.0,84,0.00,,SCT,0.00,0.00,VWS V14.01,2013-04-17 05:40:00,
2013-04-17 01:45:00,65.8,60.8,30.29,NW,319,6.0,13.0,84,0.00,,SCT,0.00,0.00,VWS V14.01,2013-04-17 05:45:00,
2013-04-17 01:50:00,66.6,60.9,30.28,NNW,336,0.0,13.0,82,0.00,,SCT,0.00,0.00,VWS V14.01,2013-04-17 05:50:00,
2013-04-17 01:55:00,67.0,61.0,30.28,NNW,336,0.0,0.0,81,0.00,,SCT,0.00,0.00,VWS V14.01,2013-04-17 05:55:00,
2013-04-17 02:00:00,67.7,61.0,30.28,NNW,336,0.0,1.0,79,0.00,,SCT,0.00,0.00,VWS V14.01,2013-04-17 06:00:00,
2013-04-17 02:05:00,68.1,61.0,30.27,NNW,336,0.0,1.0,78,0.00,,SCT,0.00,0.00,VWS V14.01,2013-04-17 06:05:00,
2013-04-17 02:10:00,67.8,61.1,30.27,NNW,336,2.0,2.0,79,0.00,,SCT,0.00,0.00,VWS V14.01,2013-04-17 06:10:00,
2013-04-17 02:15:00,67.2,60.8,30.26,NNW,336,0.0,2.0,80,0.00,,SCT,0.00,0.00,VWS V14.01,2013-04-17 06:15:00,
2013-04-17 02:20:00,67.4,61.0,30.25,NNW,336,2.0,3.0,80,0.00,,SCT,0.00,0.00,VWS V14.01,2013-04-17 06:20:00,
2013-04-17 02:25:00,67.7,61.0,30.25,NNW,336,0.0,3.0,79,0.00,,SCT,0.00,0.00,VWS V14.01,2013-04-17 06:25:00,
2013-04-17 02:30:00,67.2,61.2,30.25,NNW,336,0.0,4.0,81,0.00,,SCT,0.00,0.00,VWS V14.01,2013-04-17 06:30:00,
2013-04-17 02:35:00,67.0,61.0,30.25,SE,138,8.0,9.0,81,0.00,,SCT,0.00,0.00,VWS V14.01,2013-04-17 06:35:00,
2013-04-17 02:40:00,66.4,60.7,30.25,East,90,4.0,9.0,82,0.00,,SCT,0.00,0.00,VWS V14.01,2013-04-17 06:40:00,
2013-04-17 02:45:00,65.8,60.5,30.25,NNW,327,3.0,9.0,83,0.00,,SCT,0.00,0.00,VWS V14.01,2013-04-17 06:45:00,
2013-04-17 02:50:00,65.0,60.4,30.25,NNW,327,0.0,9.0,85,0.00,,SCT,0.00,0.00,VWS V14.01,2013-04-17 06:50:00,
2013-04-17 02:55:00,64.7,60.4,30.25,ESE,115,4.0,5.0,86,0.00,,SCT,0.00,0.00,VWS V14.01,2013-04-17 06:55:00,
2013-04-17 03:00:00,64.8,60.5,30.24,ENE,67,3.0,5.0,86,0.00,,SCT,0.00,0.00,VWS V14.01,2013-04-17 07:00:00,
2013-04-17 03:05:00,65.0,60.7,30.25,NNE,13,1.0,5.0,86,0.00,,SCT,0.00,0.00,VWS V14.01,2013-04-17 07:05:00,
2013-04-17 03:10:00,64.7,60.4,30.24,NNW,336,3.0,5.0,86,0.00,,SCT,0.00,0.00,VWS V14.01,2013-04-17 07:10:00,
2013-04-17 03:15:00,64.5,60.2,30.24,NW,313,2.0,6.0,86,0.00,,SCT,0.00,0.00,VWS V14.01,2013-04-17 07:15:00,
2013-04-17 03:20:00,64.4,60.5,30.23,NNE,18,0.0,6.0,87,0.00,,SCT,0.00,0.00,VWS V14.01,2013-04-17 07:20:00,
2013-04-17 03:25:00,64.7,60.4,30.23,NE,35,3.0,6.0,86,0.00,,SCT,0.00,0.00,VWS V14.01,2013-04-17 07:25:00,
2013-04-17 03:30:00,64.6,60.3,30.24,ESE,118,4.0,6.0,86,0.00,,SCT,0.00,0.00,VWS V14.01,2013-04-17 07:30:00,
2013-04-17 03:35:00,64.3,60.3,30.23,ESE,118,0.0,6.0,87,0.00,,SCT,0.00,0.00,VWS V14.01,2013-04-17 07:35:00,
2013-04-17 03:40:00,63.5,59.9,30.23,WSW,244,4.0,6.0,88,0.00,,SCT,0.00,0.00,VWS V14.01,2013-04-17 07:40:00,
2013-04-17 03:45:00,63.6,60.3,30.22,West,280,2.0,6.0,89,0.00,,SCT,0.00,0.00,VWS V14.01,2013-04-17 07:45:00,
2013-04-17 03:50:00,64.4,60.8,30.22,WNW,284,0.0,6.0,88,0.00,,SCT,0.00,0.00,VWS V14.01,2013-04-17 07:50:00,
2013-04-17 03:55:00,64.6,60.3,30.22,NE,51,2.0,3.0,86,0.00,,SCT,0.00,0.00,VWS V14.01,2013-04-17 07:55:00,
2013-04-17 04:00:00,64.1,60.2,30.22,ESE,104,1.0,4.0,87,0.00,,SCT,0.00,0.00,VWS V14.01,2013-04-17 08:00:00,
2013-04-17 04:05:00,63.5,59.9,30.22,SSE,148,2.0,4.0,88,0.00,,SCT,0.00,0.00,VWS V14.01,2013-04-17 08:05:00,
2013-04-17 04:10:00,63.1,59.8,30.22,SSW,200,0.0,5.0,89,0.00,,SCT,0.00,0.00,VWS V14.01,2013-04-17 08:10:00,
2013-04-17 04:15:00,63.5,60.2,30.21,SSW,192,2.0,5.0,89,0.00,,SCT,0.00,0.00,VWS V14.01,2013-04-17 08:15:00,
2013-04-17 04:20:00,64.0,60.4,30.22,SSW,192,0.0,5.0,88,0.00,,SCT,0.00,0.00,VWS V14.01,2013-04-17 08:20:00,
2013-04-17 04:25:00,63.7,60.1,30.22,SE,144,6.0,6.0,88,0.00,,SCT,0.00,0.00,VWS V14.01,2013-04-17 08:25:00,
2013-04-17 04:30:00,63.5,59.9,30.22,SE,136,0.0,6.0,88,0.00,,SCT,0.00,0.00,VWS V14.01,2013-04-17 08:30:00,
2013-04-17 04:35:00,63.1,59.8,30.22,SSE,154,4.0,6.0,89,0.00,,SCT,0.00,0.00,VWS V14.01,2013-04-17 08:35:00,
2013-04-17 04:40:00,62.7,59.7,30.22,South,183,0.0,6.0,90,0.00,,SCT,0.00,0.00,VWS V14.01,2013-04-17 08:40:00,
2013-04-17 04:45:00,63.0,60.0,30.22,South,183,0.0,6.0,90,0.00,,SCT,0.00,0.00,VWS V14.01,2013-04-17 08:45:00,
2013-04-17 04:50:00,63.5,60.2,30.23,South,183,1.0,6.0,89,0.00,,SCT,0.00,0.00,VWS V14.01,2013-04-17 08:50:00,
2013-04-17 04:55:00,63.5,60.2,30.24,ESE,115,2.0,4.0,89,0.00,,SCT,0.00,0.00,VWS V14.01,2013-04-17 08:55:00,
2013-04-17 05:00:00,63.6,60.3,30.24,ESE,111,0.0,4.0,89,0.00,,SCT,0.00,0.00,VWS V14.01,2013-04-17 09:00:00,
2013-04-17 05:05:00,63.1,59.8,30.24,ESE,111,2.0,4.0,89,0.00,,SCT,0.00,0.00,VWS V14.01,2013-04-17 09:05:00,
2013-04-17 05:10:00,62.6,59.6,30.24,ESE,111,0.0,4.0,90,0.00,,SCT,0.00,0.00,VWS V14.01,2013-04-17 09:10:00,
2013-04-17 05:15:00,62.6,59.6,30.24,ESE,111,0.0,4.0,90,0.00,,SCT,0.00,0.00,VWS V14.01,2013-04-17 09:15:00,
2013-04-17 05:20:00,62.7,60.0,30.24,ESE,111,0.0,4.0,91,0.00,,SCT,0.00,0.00,VWS V14.01,2013-04-17 09:20:00,
2013-04-17 05:25:00,62.9,59.9,30.24,NW,317,1.0,4.0,90,0.00,,SCT,0.00,0.00,VWS V14.01,2013-04-17 09:25:00,
2013-04-17 05:30:00,62.9,59.9,30.24,NW,317,0.0,4.0,90,0.00,,SCT,0.00,0.00,VWS V14.01,2013-04-17 09:30:00,
2013-04-17 05:35:00,63.2,60.2,30.24,NW,317,2.0,4.0,90,0.00,,SCT,0.00,0.00,VWS V14.01,2013-04-17 09:35:00,
2013-04-17 05:40:00,63.5,60.2,30.24,NW,317,0.0,4.0,89,0.00,,SCT,0.00,0.00,VWS V14.01,2013-04-17 09:40:00,
2013-04-17 05:45:00,63.8,60.5,30.24,NW,317,0.0,4.0,89,0.00,,SCT,0.00,0.00,VWS V14.01,2013-04-17 09:45:00,
2013-04-17 05:50:00,63.8,60.2,30.25,NW,317,0.0,4.0,88,0.00,,SCT,0.00,0.00,VWS V14.01,2013-04-17 09:50:00,
2013-04-17 05:55:00,63.8,60.2,30.25,NW,317,0.0,0.0,88,0.00,,SCT,0.00,0.00,VWS V14.01,2013-04-17 09:55:00,
2013-04-17 06:00:00,64.0,60.4,30.24,NW,317,1.0,2.0,88,0.00,,SCT,0.00,0.00,VWS V14.01,2013-04-17 10:00:00,
2013-04-17 06:05:00,64.1,60.2,30.24,NW,317,0.0,2.0,87,0.00,,SCT,0.00,0.00,VWS V14.01,2013-04-17 10:05:00,
2013-04-17 06:10:00,63.6,60.0,30.25,NW,317,0.0,2.0,88,0.00,,SCT,0.00,0.00,VWS V14.01,2013-04-17 10:10:00,
2013-04-17 06:15:00,63.6,60.0,30.25,NW,317,0.0,2.0,88,0.00,,SCT,0.00,0.00,VWS V14.01,2013-04-17 10:15:00,
2013-04-17 06:20:00,63.5,60.2,30.25,NW,317,1.0,3.0,89,0.00,,SCT,0.00,0.00,VWS V14.01,2013-04-17 10:20:00,
2013-04-17 06:25:00,63.4,60.1,30.25,NNW,344,0.0,4.0,89,0.00,,SCT,0.00,0.00,VWS V14.01,2013-04-17 10:25:00,
2013-04-17 06:30:00,63.3,60.0,30.25,NNW,346,3.0,4.0,89,0.00,,SCT,0.00,0.00,VWS V14.01,2013-04-17 10:30:00,
2013-04-17 06:35:00,63.1,59.8,30.25,NNW,348,1.0,4.0,89,0.00,,SCT,0.00,0.00,VWS V14.01,2013-04-17 10:35:00,
2013-04-17 06:40:00,63.2,59.9,30.25,North,350,2.0,5.0,89,0.00,,SCT,0.00,0.00,VWS V14.01,2013-04-17 10:40:00,
2013-04-17 06:45:00,63.3,60.0,30.26,North,350,0.0,5.0,89,0.00,,SCT,0.00,0.00,VWS V14.01,2013-04-17 10:45:00,
2013-04-17 06:50:00,62.9,59.6,30.26,North,350,0.0,5.0,89,0.00,,SCT,0.00,5.00,VWS V14.01,2013-04-17 10:50:00,
2013-04-17 06:55:00,62.7,59.7,30.26,North,350,0.0,0.0,90,0.00,,SCT,0.00,7.00,VWS V14.01,2013-04-17 10:55:00,
2013-04-17 07:00:00,62.6,59.9,30.26,North,350,1.0,1.0,91,0.00,,SCT,0.00,12.00,VWS V14.01,2013-04-17 11:00:00,
2013-04-17 07:05:00,62.4,59.7,30.27,North,350,0.0,2.0,91,0.00,,SCT,0.00,16.00,VWS V14.01,2013-04-17 11:05:00,
2013-04-17 07:10:00,62.4,59.7,30.27,North,350,0.0,2.0,91,0.00,,SCT,0.00,23.00,VWS V14.01,2013-04-17 11:10:00,
2013-04-17 07:15:00,62.8,60.1,30.27,ENE,74,0.0,2.0,91,0.00,,SCT,0.00,28.00,VWS V14.01,2013-04-17 11:15:00,
2013-04-17 07:20:00,62.7,59.7,30.27,ENE,74,0.0,2.0,90,0.00,,SCT,0.00,35.00,VWS V14.01,2013-04-17 11:20:00,
2013-04-17 07:25:00,62.6,59.9,30.27,ENE,74,0.0,2.0,91,0.00,,SCT,0.00,44.00,VWS V14.01,2013-04-17 11:25:00,
2013-04-17 07:30:00,62.7,60.0,30.27,ENE,74,0.0,2.0,91,0.00,,SCT,0.00,54.00,VWS V14.01,2013-04-17 11:30:00,
2013-04-17 07:35:00,63.0,60.0,30.27,ENE,74,0.0,2.0,90,0.00,,SCT,0.00,69.00,VWS V14.01,2013-04-17 11:35:00,
2013-04-17 07:40:00,63.1,60.1,30.27,ENE,74,0.0,2.0,90,0.00,,SCT,0.00,83.00,VWS V14.01,2013-04-17 11:40:00,
2013-04-17 07:45:00,63.2,60.2,30.27,ENE,74,0.0,2.0,90,0.00,,SCT,0.00,95.00,VWS V14.01,2013-04-17 11:45:00,
2013-04-17 07:50:00,63.7,60.4,30.27,ENE,74,0.0,2.0,89,0.00,,SCT,0.00,98.00,VWS V14.01,2013-04-17 11:50:00,
2013-04-17 07:55:00,64.2,60.9,30.27,ENE,74,0.0,3.0,89,0.00,,SCT,0.00,118.00,VWS V14.01,2013-04-17 11:55:00,
2013-04-17 08:00:00,64.0,60.7,30.27,ENE,74,0.0,3.0,89,0.00,,SCT,0.00,114.00,VWS V14.01,2013-04-17 12:00:00,
2013-04-17 08:05:00,63.6,60.6,30.27,ENE,74,0.0,3.0,90,0.00,,SCT,0.00,120.00,VWS V14.01,2013-04-17 12:05:00,
2013-04-17 08:10:00,63.6,60.6,30.27,ENE,74,0.0,3.0,90,0.00,,SCT,0.00,121.00,VWS V14.01,2013-04-17 12:10:00,
2013-04-17 08:15:00,64.4,61.1,30.27,ENE,74,0.0,3.0,89,0.00,,SCT,0.00,120.00,VWS V14.01,2013-04-17 12:15:00,
2013-04-17 08:20:00,65.1,61.1,30.26,ENE,74,0.0,3.0,87,0.00,,SCT,0.00,123.00,VWS V14.01,2013-04-17 12:20:00,
2013-04-17 08:25:00,65.1,61.5,30.26,ENE,74,0.0,3.0,88,0.00,,SCT,0.00,127.00,VWS V14.01,2013-04-17 12:25:00,
2013-04-17 08:30:00,65.0,61.4,30.26,ENE,74,0.0,3.0,88,0.00,,SCT,0.00,132.00,VWS V14.01,2013-04-17 12:30:00,
2013-04-17 08:35:00,65.1,61.5,30.26,ENE,74,0.0,3.0,88,0.00,,SCT,0.00,141.00,VWS V14.01,2013-04-17 12:35:00,
2013-04-17 08:40:00,65.8,61.5,30.26,ENE,74,1.0,3.0,86,0.00,,SCT,0.00,153.00,VWS V14.01,2013-04-17 12:40:00,
2013-04-17 08:45:00,66.5,61.5,30.26,ENE,70,0.0,4.0,84,0.00,,SCT,0.00,169.00,VWS V14.01,2013-04-17 12:45:00,
2013-04-17 08:50:00,66.7,61.7,30.26,ENE,70,0.0,4.0,84,0.00,,SCT,0.00,183.00,VWS V14.01,2013-04-17 12:50:00,
2013-04-17 08:55:00,66.4,61.8,30.26,ENE,70,0.0,0.0,85,0.00,,SCT,0.00,185.00,VWS V14.01,2013-04-17 12:55:00,
2013-04-17 09:00:00,67.0,62.0,30.26,ENE,70,0.0,2.0,84,0.00,,SCT,0.00,185.00,VWS V14.01,2013-04-17 13:00:00,
2013-04-17 09:05:00,67.0,62.3,30.26,ENE,70,0.0,2.0,85,0.00,,SCT,0.00,179.00,VWS V14.01,2013-04-17 13:05:00,
2013-04-17 09:10:00,66.7,62.0,30.27,ENE,71,0.0,3.0,85,0.00,,SCT,0.00,185.00,VWS V14.01,2013-04-17 13:10:00,
2013-04-17 09:15:00,66.7,62.0,30.27,ENE,71,0.0,3.0,85,0.00,,SCT,0.00,181.00,VWS V14.01,2013-04-17 13:15:00,
2013-04-17 09:20:00,66.8,62.2,30.27,ENE,71,0.0,3.0,85,0.00,,SCT,0.00,178.00,VWS V14.01,2013-04-17 13:20:00,
2013-04-17 09:25:00,67.0,62.3,30.27,ENE,71,0.0,3.0,85,0.00,,SCT,0.00,176.00,VWS V14.01,2013-04-17 13:25:00,
2013-04-17 09:30:00,67.4,62.4,30.27,ENE,71,0.0,3.0,84,0.00,,SCT,0.00,169.00,VWS V14.01,2013-04-17 13:30:00,
2013-04-17 09:35:00,67.3,62.3,30.27,ENE,71,0.0,3.0,84,0.00,,SCT,0.00,165.00,VWS V14.01,2013-04-17 13:35:00,
2013-04-17 09:40:00,67.2,62.2,30.28,ENE,71,0.0,3.0,84,0.00,,SCT,0.00,163.00,VWS V14.01,2013-04-17 13:40:00,
2013-04-17 09:45:00,67.3,62.3,30.27,ENE,71,0.0,3.0,84,0.00,,SCT,0.00,172.00,VWS V14.01,2013-04-17 13:45:00,
2013-04-17 09:50:00,67.7,62.7,30.28,ENE,71,0.0,3.0,84,0.00,,SCT,0.00,181.00,VWS V14.01,2013-04-17 13:50:00,
2013-04-17 09:55:00,68.0,62.7,30.27,ENE,71,0.0,1.0,83,0.00,,SCT,0.00,192.00,VWS V14.01,2013-04-17 13:55:00,
2013-04-17 10:00:00,68.2,62.8,30.27,ENE,71,0.0,1.0,83,0.00,,SCT,0.00,200.00,VWS V14.01,2013-04-17 14:00:00,
2013-04-17 10:05:00,68.6,63.2,30.27,ENE,71,0.0,1.0,83,0.00,,SCT,0.00,206.00,VWS V14.01,2013-04-17 14:05:00,
2013-04-17 10:10:00,69.0,62.9,30.27,ENE,71,0.0,3.0,81,0.00,,SCT,0.00,218.00,VWS V14.01,2013-04-17 14:10:00,
2013-04-17 10:15:00,69.3,63.2,30.27,ENE,71,1.0,3.0,81,0.00,,SCT,0.00,239.00,VWS V14.01,2013-04-17 14:15:00,
2013-04-17 10:20:00,69.2,63.1,30.27,ENE,71,0.0,3.0,81,0.00,,SCT,0.00,248.00,VWS V14.01,2013-04-17 14:20:00,
2013-04-17 10:25:00,69.4,63.3,30.28,ENE,71,2.0,3.0,81,0.00,,SCT,0.00,244.00,VWS V14.01,2013-04-17 14:25:00,
2013-04-17 10:30:00,69.2,63.1,30.28,ENE,71,0.0,3.0,81,0.00,,SCT,0.00,237.00,VWS V14.01,2013-04-17 14:30:00,
2013-04-17 10:35:00,69.4,63.3,30.28,ENE,72,0.0,3.0,81,0.00,,SCT,0.00,227.00,VWS V14.01,2013-04-17 14:35:00,
2013-04-17 10:40:00,69.7,63.6,30.27,ENE,72,0.0,3.0,81,0.00,,SCT,0.00,216.00,VWS V14.01,2013-04-17 14:40:00,
2013-04-17 10:45:00,69.8,63.4,30.28,ENE,72,0.0,3.0,80,0.00,,SCT,0.00,206.00,VWS V14.01,2013-04-17 14:45:00,
2013-04-17 10:50:00,69.7,63.3,30.28,ENE,72,0.0,3.0,80,0.00,,SCT,0.00,211.00,VWS V14.01,2013-04-17 14:50:00,
2013-04-17 10:55:00,69.9,63.8,30.27,ENE,72,1.0,2.0,81,0.00,,SCT,0.00,251.00,VWS V14.01,2013-04-17 14:55:00,
2013-04-17 11:00:00,69.9,63.5,30.28,ENE,72,1.0,2.0,80,0.00,,SCT,0.00,316.00,VWS V14.01,2013-04-17 15:00:00,
2013-04-17 11:05:00,70.0,63.2,30.27,ENE,70,0.0,4.0,79,0.00,,SCT,0.00,359.00,VWS V14.01,2013-04-17 15:05:00,
2013-04-17 11:10:00,70.1,63.7,30.27,ENE,70,1.0,4.0,80,0.00,,SCT,0.00,309.00,VWS V14.01,2013-04-17 15:10:00,
2013-04-17 11:15:00,70.7,63.9,30.27,ENE,70,0.0,4.0,79,0.00,,SCT,0.00,315.00,VWS V14.01,2013-04-17 15:15:00,
2013-04-17 11:20:00,70.9,63.7,30.27,ENE,70,0.0,4.0,78,0.00,,SCT,0.00,279.00,VWS V14.01,2013-04-17 15:20:00,
2013-04-17 11:25:00,71.5,63.9,30.27,ENE,70,0.0,4.0,77,0.00,,SCT,0.00,316.00,VWS V14.01,2013-04-17 15:25:00,
2013-04-17 11:30:00,71.8,64.2,30.27,ENE,70,0.0,4.0,77,0.00,,SCT,0.00,570.00,VWS V14.01,2013-04-17 15:30:00,
2013-04-17 11:35:00,72.7,65.1,30.27,ENE,70,0.0,4.0,77,0.00,,SCT,0.00,626.00,VWS V14.01,2013-04-17 15:35:00,
2013-04-17 11:39:00,73.5,64.7,30.27,ENE,70,0.0,4.0,74,0.00,,SCT,0.00,541.00,VWS V14.01,2013-04-17 15:39:00,
2013-04-17 11:45:00,73.8,65.8,30.27,ENE,70,1.0,4.0,76,0.00,,SCT,0.00,671.00,VWS V14.01,2013-04-17 15:45:00,
2013-04-17 11:49:00,74.2,64.6,30.27,ENE,69,2.0,4.0,72,0.00,,SCT,0.00,520.00,VWS V14.01,2013-04-17 15:49:00,
2013-04-17 11:54:00,74.9,65.3,30.27,East,94,0.0,3.0,72,0.00,,SCT,0.00,485.00,VWS V14.01,2013-04-17 15:54:00,
2013-04-17 11:59:00,75.2,66.0,30.27,West,277,2.0,4.0,73,0.00,,SCT,0.00,439.00,VWS V14.01,2013-04-17 15:59:00,
2013-04-17 12:00:00,74.7,65.1,30.27,East,84,1.0,4.0,72,0.00,,SCT,0.00,489.00,VWS V14.01,2013-04-17 16:00:00,
2013-04-17 12:04:00,74.9,64.1,30.27,WNW,292,2.0,5.0,69,0.00,,SCT,0.00,448.00,VWS V14.01,2013-04-17 16:04:00,
2013-04-17 12:09:00,75.4,64.5,30.27,NW,308,0.0,5.0,69,0.00,,SCT,0.00,397.00,VWS V14.01,2013-04-17 16:09:00,
2013-04-17 12:14:00,76.2,64.4,30.27,NW,325,0.0,5.0,67,0.00,,SCT,0.00,425.00,VWS V14.01,2013-04-17 16:14:00,
2013-04-17 12:19:00,77.4,64.7,30.27,NNW,329,2.0,5.0,65,0.00,,SCT,0.00,763.00,VWS V14.01,2013-04-17 16:19:00,
2013-04-17 12:24:00,77.4,65.2,30.27,WSW,246,2.0,5.0,66,0.00,,SCT,0.00,791.00,VWS V14.01,2013-04-17 16:24:00,
2013-04-17 12:29:00,77.5,64.4,30.27,West,273,4.0,5.0,64,0.00,,SCT,0.00,740.00,VWS V14.01,2013-04-17 16:29:00,
2013-04-17 12:34:00,77.6,64.0,30.27,SSW,212,2.0,6.0,63,0.00,,SCT,0.00,707.00,VWS V14.01,2013-04-17 16:34:00,
2013-04-17 12:39:00,77.9,60.5,30.26,SSW,206,0.0,8.0,55,0.00,,SCT,0.00,721.00,VWS V14.01,2013-04-17 16:39:00,
2013-04-17 12:44:00,78.1,59.1,30.26,SW,215,6.0,10.0,52,0.00,,SCT,0.00,647.00,VWS V14.01,2013-04-17 16:44:00,
2013-04-17 12:49:00,77.7,59.8,30.25,WSW,258,5.0,10.0,54,0.00,,SCT,0.00,722.00,VWS V14.01,2013-04-17 16:49:00,
2013-04-17 12:54:00,78.2,59.2,30.25,SSW,209,6.0,8.0,52,0.00,,SCT,0.00,740.00,VWS V14.01,2013-04-17 16:54:00,
2013-04-17 12:59:00,78.2,60.2,30.25,WSW,247,4.0,8.0,54,0.00,,SCT,0.00,817.00,VWS V14.01,2013-04-17 16:59:00,
2013-04-17 13:00:00,78.2,59.2,30.25,SSW,207,5.0,10.0,52,0.00,,SCT,0.00,721.00,VWS V14.01,2013-04-17 17:00:00,
2013-04-17 13:04:00,78.7,59.6,30.24,ESE,120,5.0,8.0,52,0.00,,SCT,0.00,814.00,VWS V14.01,2013-04-17 17:04:00,
2013-04-17 13:09:00,79.2,59.0,30.24,SE,134,7.0,8.0,50,0.00,,SCT,0.00,793.00,VWS V14.01,2013-04-17 17:09:00,
2013-04-17 13:14:00,80.2,59.3,30.24,SE,129,0.0,8.0,49,0.00,,SCT,0.00,756.00,VWS V14.01,2013-04-17 17:14:00,
2013-04-17 13:19:00,80.3,58.8,30.23,SE,141,6.0,8.0,48,0.00,,SCT,0.00,724.00,VWS V14.01,2013-04-17 17:19:00,
2013-04-17 13:24:00,80.1,59.8,30.23,SSW,192,0.0,8.0,50,0.00,,SCT,0.00,759.00,VWS V14.01,2013-04-17 17:24:00,
2013-04-17 13:29:00,80.2,59.3,30.23,SE,134,0.0,8.0,49,0.00,,SCT,0.00,751.00,VWS V14.01,2013-04-17 17:29:00,
2013-04-17 13:34:00,81.0,60.1,30.23,ESE,121,5.0,8.0,49,0.00,,SCT,0.00,821.00,VWS V14.01,2013-04-17 17:34:00,
2013-04-17 13:39:00,80.6,59.1,30.23,SW,215,0.0,8.0,48,0.00,,SCT,0.00,823.00,VWS V14.01,2013-04-17 17:39:00,
2013-04-17 13:44:00,81.1,61.8,30.22,SSE,150,4.0,9.0,52,0.00,,SCT,0.00,835.00,VWS V14.01,2013-04-17 17:44:00,
2013-04-17 13:49:00,81.1,61.3,30.23,SSW,198,5.0,11.0,51,0.00,,SCT,0.00,800.00,VWS V14.01,2013-04-17 17:49:00,
2013-04-17 13:54:00,80.8,59.9,30.22,SSE,160,1.0,5.0,49,0.00,,SCT,0.00,527.00,VWS V14.01,2013-04-17 17:54:00,
2013-04-17 13:59:00,80.6,60.3,30.22,South,169,1.0,5.0,50,0.00,,SCT,0.00,522.00,VWS V14.01,2013-04-17 17:59:00,
2013-04-17 14:00:00,80.9,60.0,30.22,South,190,2.0,11.0,49,0.00,,SCT,0.00,527.00,VWS V14.01,2013-04-17 18:00:00,
2013-04-17 14:04:00,80.7,60.3,30.22,WNW,285,0.0,5.0,50,0.00,,SCT,0.00,589.00,VWS V14.01,2013-04-17 18:04:00,
2013-04-17 14:09:00,81.3,60.9,30.22,WNW,285,0.0,5.0,50,0.00,,SCT,0.00,694.00,VWS V14.01,2013-04-17 18:09:00,
2013-04-17 14:14:00,80.9,61.6,30.22,SW,217,7.0,10.0,52,0.00,,SCT,0.00,714.00,VWS V14.01,2013-04-17 18:14:00,
2013-04-17 14:19:00,80.7,60.9,30.22,WSW,240,2.0,10.0,51,0.00,,SCT,0.00,668.00,VWS V14.01,2013-04-17 18:19:00,
2013-04-17 14:24:00,81.2,60.8,30.22,West,265,1.0,10.0,50,0.00,,SCT,0.00,645.00,VWS V14.01,2013-04-17 18:24:00,
2013-04-17 14:29:00,81.0,60.6,30.22,SW,231,4.0,10.0,50,0.00,,SCT,0.00,729.00,VWS V14.01,2013-04-17 18:29:00,
2013-04-17 14:34:00,80.7,60.9,30.22,WSW,251,5.0,10.0,51,0.00,,SCT,0.00,679.00,VWS V14.01,2013-04-17 18:34:00,
2013-04-17 14:39:00,80.8,60.4,30.22,West,265,5.0,10.0,50,0.00,,SCT,0.00,708.00,VWS V14.01,2013-04-17 18:39:00,
2013-04-17 14:44:00,81.2,60.2,30.21,SSW,204,5.0,10.0,49,0.00,,SCT,0.00,606.00,VWS V14.01,2013-04-17 18:44:00,
2013-04-17 14:49:00,81.6,60.6,30.21,South,186,2.0,10.0,49,0.00,,SCT,0.00,708.00,VWS V14.01,2013-04-17 18:49:00,
2013-04-17 14:54:00,82.7,61.0,30.21,ENE,65,2.0,4.0,48,0.00,,SCT,0.00,740.00,VWS V14.01,2013-04-17 18:54:00,
2013-04-17 14:59:00,83.3,62.2,30.21,WSW,251,4.0,4.0,49,0.00,,SCT,0.00,707.00,VWS V14.01,2013-04-17 18:59:00,
2013-04-17 15:00:00,82.5,61.4,30.21,SE,125,2.0,10.0,49,0.00,,SCT,0.00,731.00,VWS V14.01,2013-04-17 19:00:00,
2013-04-17 15:04:00,81.9,62.0,30.21,WNW,291,8.0,11.0,51,0.00,,SCT,0.00,729.00,VWS V14.01,2013-04-17 19:04:00,
2013-04-17 15:09:00,81.7,61.3,30.20,NNW,327,5.0,11.0,50,0.00,,SCT,0.00,744.00,VWS V14.01,2013-04-17 19:09:00,
2013-04-17 15:14:00,81.6,60.6,30.20,WNW,292,6.0,11.0,49,0.00,,SCT,0.00,729.00,VWS V14.01,2013-04-17 19:14:00,
2013-04-17 15:19:00,81.7,60.7,30.20,WSW,244,6.0,11.0,49,0.00,,SCT,0.00,700.00,VWS V14.01,2013-04-17 19:19:00,
2013-04-17 15:24:00,81.7,60.7,30.20,West,264,5.0,11.0,49,0.00,,SCT,0.00,705.00,VWS V14.01,2013-04-17 19:24:00,
2013-04-17 15:29:00,82.2,61.2,30.20,NNW,329,6.0,11.0,49,0.00,,SCT,0.00,712.00,VWS V14.01,2013-04-17 19:29:00,
2013-04-17 15:34:00,82.6,61.5,30.19,NW,318,5.0,11.0,49,0.00,,SCT,0.00,682.00,VWS V14.01,2013-04-17 19:34:00,
2013-04-17 15:39:00,82.4,61.3,30.19,WNW,298,2.0,11.0,49,0.00,,SCT,0.00,654.00,VWS V14.01,2013-04-17 19:39:00,
2013-04-17 15:44:00,82.4,61.3,30.19,West,280,0.0,11.0,49,0.00,,SCT,0.00,657.00,VWS V14.01,2013-04-17 19:44:00,
2013-04-17 15:49:00,82.4,62.5,30.19,South,188,2.0,11.0,51,0.00,,SCT,0.00,650.00,VWS V14.01,2013-04-17 19:49:00,
2013-04-17 15:54:00,82.4,61.3,30.19,SW,227,1.0,4.0,49,0.00,,SCT,0.00,631.00,VWS V14.01,2013-04-17 19:54:00,
2013-04-17 15:59:00,82.5,60.8,30.19,WNW,284,5.0,6.0,48,0.00,,SCT,0.00,626.00,VWS V14.01,2013-04-17 19:59:00,
2013-04-17 16:00:00,82.4,61.9,30.19,SSW,192,2.0,11.0,50,0.00,,SCT,0.00,643.00,VWS V14.01,2013-04-17 20:00:00,
2013-04-17 16:04:00,83.1,60.8,30.18,NW,317,4.0,7.0,47,0.00,,SCT,0.00,657.00,VWS V14.01,2013-04-17 20:04:00,
2013-04-17 16:09:00,83.3,61.0,30.18,North,355,6.0,8.0,47,0.00,,SCT,0.00,656.00,VWS V14.01,2013-04-17 20:09:00,
2013-04-17 16:14:00,83.2,60.9,30.19,WNW,283,5.0,8.0,47,0.00,,SCT,0.00,645.00,VWS V14.01,2013-04-17 20:14:00,
2013-04-17 16:19:00,83.2,59.7,30.18,NW,309,2.0,10.0,45,0.00,,SCT,0.00,631.00,VWS V14.01,2013-04-17 20:19:00,
2013-04-17 16:24:00,83.1,60.8,30.18,West,268,4.0,10.0,47,0.00,,SCT,0.00,617.00,VWS V14.01,2013-04-17 20:24:00,
2013-04-17 16:29:00,82.9,60.0,30.18,West,262,10.0,11.0,46,0.00,,SCT,0.00,566.00,VWS V14.01,2013-04-17 20:29:00,
2013-04-17 16:34:00,82.4,60.8,30.18,West,265,0.0,11.0,48,0.00,,SCT,0.00,557.00,VWS V14.01,2013-04-17 20:34:00,
2013-04-17 16:39:00,83.0,61.3,30.18,NNE,12,5.0,11.0,48,0.00,,SCT,0.00,475.00,VWS V14.01,2013-04-17 20:39:00,
2013-04-17 16:44:00,83.6,61.3,30.18,West,279,7.0,11.0,47,0.00,,SCT,0.00,209.00,VWS V14.01,2013-04-17 20:44:00,
2013-04-17 16:49:00,82.7,59.2,30.18,WNW,293,5.0,14.0,45,0.00,,SCT,0.00,192.00,VWS V14.01,2013-04-17 20:49:00,
2013-04-17 16:54:00,82.2,60.0,30.18,West,273,6.0,10.0,47,0.00,,SCT,0.00,471.00,VWS V14.01,2013-04-17 20:54:00,
2013-04-17 16:59:00,82.2,60.0,30.18,WNW,298,2.0,10.0,47,0.00,,SCT,0.00,476.00,VWS V14.01,2013-04-17 20:59:00,
2013-04-17 17:00:00,82.3,59.5,30.18,West,277,10.0,15.0,46,0.00,,SCT,0.00,207.00,VWS V14.01,2013-04-17 21:00:00,
2013-04-17 17:04:00,82.5,60.3,30.18,NW,304,7.0,10.0,47,0.00,,SCT,0.00,476.00,VWS V14.01,2013-04-17 21:04:00,
2013-04-17 17:09:00,82.5,59.7,30.18,NW,307,3.0,10.0,46,0.00,,SCT,0.00,434.00,VWS V14.01,2013-04-17 21:09:00,
2013-04-17 17:14:00,82.4,60.2,30.18,West,270,7.0,10.0,47,0.00,,SCT,0.00,443.00,VWS V14.01,2013-04-17 21:14:00,
2013-04-17 17:19:00,82.6,59.8,30.18,West,267,8.0,10.0,46,0.00,,SCT,0.00,202.00,VWS V14.01,2013-04-17 21:19:00,
2013-04-17 17:24:00,82.2,58.8,30.18,WNW,298,7.0,11.0,45,0.00,,SCT,0.00,216.00,VWS V14.01,2013-04-17 21:24:00,
2013-04-17 17:29:00,82.1,59.3,30.18,West,277,11.0,11.0,46,0.00,,SCT,0.00,311.00,VWS V14.01,2013-04-17 21:29:00,
2013-04-17 17:34:00,82.1,59.3,30.18,West,270,7.0,11.0,46,0.00,,SCT,0.00,295.00,VWS V14.01,2013-04-17 21:34:00,
2013-04-17 17:39:00,82.5,59.0,30.18,NNW,348,4.0,11.0,45,0.00,,SCT,0.00,278.00,VWS V14.01,2013-04-17 21:39:00,
2013-04-17 17:44:00,82.5,59.0,30.19,NW,310,7.0,11.0,45,0.00,,SCT,0.00,155.00,VWS V14.01,2013-04-17 21:44:00,
2013-04-17 17:49:00,82.1,59.3,30.19,WNW,288,7.0,12.0,46,0.00,,SCT,0.00,304.00,VWS V14.01,2013-04-17 21:49:00,
2013-04-17 17:54:00,82.2,60.0,30.19,North,5,4.0,6.0,47,0.00,,SCT,0.00,325.00,VWS V14.01,2013-04-17 21:54:00,
2013-04-17 17:59:00,82.5,59.7,30.19,NW,306,3.0,9.0,46,0.00,,SCT,0.00,283.00,VWS V14.01,2013-04-17 21:59:00,
2013-04-17 18:00:00,82.1,59.9,30.19,North,351,2.0,12.0,47,0.00,,SCT,0.00,329.00,VWS V14.01,2013-04-17 22:00:00,
2013-04-17 18:04:00,82.4,59.6,30.18,NW,326,6.0,9.0,46,0.00,,SCT,0.00,257.00,VWS V14.01,2013-04-17 22:04:00,
2013-04-17 18:09:00,82.1,59.3,30.18,West,271,5.0,10.0,46,0.00,,SCT,0.00,216.00,VWS V14.01,2013-04-17 22:09:00,
2013-04-17 18:14:00,82.1,59.3,30.18,West,274,7.0,13.0,46,0.00,,SCT,0.00,163.00,VWS V14.01,2013-04-17 22:14:00,
2013-04-17 18:19:00,81.9,58.5,30.18,WNW,298,8.0,13.0,45,0.00,,SCT,0.00,127.00,VWS V14.01,2013-04-17 22:19:00,
2013-04-17 18:24:00,82.0,59.2,30.18,NW,306,6.0,13.0,46,0.00,,SCT,0.00,79.00,VWS V14.01,2013-04-17 22:24:00,
2013-04-17 18:29:00,81.6,58.8,30.18,WNW,287,3.0,13.0,46,0.00,,SCT,0.00,72.00,VWS V14.01,2013-04-17 22:29:00,
2013-04-17 18:34:00,81.4,59.3,30.18,WNW,300,5.0,13.0,47,0.00,,SCT,0.00,114.00,VWS V14.01,2013-04-17 22:34:00,
2013-04-17 18:39:00,81.4,59.3,30.19,WNW,296,4.0,13.0,47,0.00,,SCT,0.00,83.00,VWS V14.01,2013-04-17 22:39:00,
2013-04-17 18:44:00,81.2,59.1,30.19,WNW,299,5.0,13.0,47,0.00,,SCT,0.00,70.00,VWS V14.01,2013-04-17 22:44:00,
2013-04-17 18:49:00,81.2,59.1,30.19,West,259,2.0,13.0,47,0.00,,SCT,0.00,60.00,VWS V14.01,2013-04-17 22:49:00,
2013-04-17 18:54:00,80.9,58.8,30.19,WNW,291,5.0,5.0,47,0.00,,SCT,0.00,53.00,VWS V14.01,2013-04-17 22:54:00,
2013-04-17 18:59:00,80.9,58.8,30.19,WNW,288,3.0,8.0,47,0.00,,SCT,0.00,42.00,VWS V14.01,2013-04-17 22:59:00,
2013-04-17 19:00:00,80.9,59.4,30.19,WNW,301,2.0,13.0,48,0.00,,SCT,0.00,54.00,VWS V14.01,2013-04-17 23:00:00,
2013-04-17 19:04:00,80.7,59.2,30.19,WNW,299,4.0,8.0,48,0.00,,SCT,0.00,35.00,VWS V14.01,2013-04-17 23:04:00,
2013-04-17 19:09:00,80.7,59.2,30.19,West,279,4.0,9.0,48,0.00,,SCT,0.00,30.00,VWS V14.01,2013-04-17 23:09:00,
2013-04-17 19:14:00,80.3,59.4,30.19,West,272,5.0,9.0,49,0.00,,SCT,0.00,26.00,VWS V14.01,2013-04-17 23:14:00,
2013-04-17 19:19:00,80.0,59.1,30.19,WNW,284,5.0,9.0,49,0.00,,SCT,0.00,23.00,VWS V14.01,2013-04-17 23:19:00,
2013-04-17 19:24:00,80.0,59.1,30.19,WNW,295,5.0,9.0,49,0.00,,SCT,0.00,18.00,VWS V14.01,2013-04-17 23:24:00,
2013-04-17 19:29:00,79.9,59.6,30.19,West,271,7.0,9.0,50,0.00,,SCT,0.00,12.00,VWS V14.01,2013-04-17 23:29:00,
2013-04-17 19:34:00,79.8,59.0,30.19,West,275,6.0,12.0,49,0.00,,SCT,0.00,9.00,VWS V14.01,2013-04-17 23:34:00,
2013-04-17 19:39:00,79.6,59.9,30.19,West,271,7.0,12.0,51,0.00,,SCT,0.00,11.00,VWS V14.01,2013-04-17 23:39:00,
2013-04-17 19:44:00,79.4,59.7,30.20,WNW,288,6.0,12.0,51,0.00,,SCT,0.00,5.00,VWS V14.01,2013-04-17 23:44:00,
2013-04-17 19:49:00,79.3,60.2,30.20,WNW,289,9.0,12.0,52,0.00,,SCT,0.00,0.00,VWS V14.01,2013-04-17 23:49:00,
2013-04-17 19:54:00,79.2,60.1,30.20,West,275,8.0,9.0,52,0.00,,SCT,0.00,0.00,VWS V14.01,2013-04-17 23:54:00,
2013-04-17 19:59:00,79.2,60.1,30.20,West,281,7.0,10.0,52,0.00,,SCT,0.00,0.00,VWS V14.01,2013-04-17 23:59:00,
2013-04-17 20:00:00,79.1,60.0,30.20,West,277,8.0,13.0,52,0.00,,SCT,0.00,0.00,VWS V14.01,2013-04-18 00:00:00,
2013-04-17 20:04:00,79.0,60.4,30.20,West,279,6.0,10.0,53,0.00,,SCT,0.00,0.00,VWS V14.01,2013-04-18 00:04:00,
2013-04-17 20:09:00,78.8,60.2,30.20,West,263,4.0,10.0,53,0.00,,SCT,0.00,0.00,VWS V14.01,2013-04-18 00:09:00,
2013-04-17 20:14:00,78.8,60.2,30.21,WSW,242,3.0,10.0,53,0.00,,SCT,0.00,0.00,VWS V14.01,2013-04-18 00:14:00,
2013-04-17 20:19:00,78.9,61.4,30.22,SSE,151,12.0,13.0,55,0.00,,SCT,0.00,0.00,VWS V14.01,2013-04-18 00:19:00,
2013-04-17 20:24:00,78.0,63.0,30.22,SSW,202,7.0,17.0,60,0.00,,SCT,0.00,0.00,VWS V14.01,2013-04-18 00:24:00,
2013-04-17 20:29:00,76.8,63.3,30.23,South,177,5.0,17.0,63,0.00,,SCT,0.00,0.00,VWS V14.01,2013-04-18 00:29:00,
2013-04-17 20:34:00,76.0,63.0,30.23,SSW,202,11.0,17.0,64,0.00,,SCT,0.00,0.00,VWS V14.01,2013-04-18 00:34:00,
2013-04-17 20:39:00,75.5,62.9,30.23,SSW,192,5.0,17.0,65,0.00,,SCT,0.00,0.00,VWS V14.01,2013-04-18 00:39:00,
2013-04-17 20:44:00,74.9,63.2,30.23,South,185,9.0,17.0,67,0.00,,SCT,0.00,0.00,VWS V14.01,2013-04-18 00:44:00,
2013-04-17 20:49:00,74.6,62.9,30.24,SW,222,7.0,17.0,67,0.00,,SCT,0.00,0.00,VWS V14.01,2013-04-18 00:49:00,
2013-04-17 20:54:00,74.3,63.1,30.23,SSW,211,10.0,10.0,68,0.00,,SCT,0.00,0.00,VWS V14.01,2013-04-18 00:54:00,
2013-04-17 20:59:00,74.0,62.8,30.24,SW,232,9.0,18.0,68,0.00,,SCT,0.00,0.00,VWS V14.01,2013-04-18 00:59:00,
2013-04-17 21:00:00,74.3,63.1,30.23,SSW,200,7.0,17.0,68,0.00,,SCT,0.00,0.00,VWS V14.01,2013-04-18 01:00:00,
2013-04-17 21:04:00,73.7,62.9,30.24,South,188,4.0,18.0,69,0.00,,SCT,0.00,0.00,VWS V14.01,2013-04-18 01:04:00,
2013-04-17 21:09:00,73.5,63.1,30.24,SSW,203,13.0,18.0,70,0.00,,SCT,0.00,0.00,VWS V14.01,2013-04-18 01:09:00,
2013-04-17 21:14:00,73.2,62.8,30.24,SSW,196,14.0,18.0,70,0.00,,SCT,0.00,0.00,VWS V14.01,2013-04-18 01:14:00,
2013-04-17 21:19:00,73.0,63.0,30.24,SSW,197,4.0,18.0,71,0.00,,SCT,0.00,0.00,VWS V14.01,2013-04-18 01:19:00,
2013-04-17 21:24:00,72.8,62.9,30.24,SSW,206,11.0,18.0,71,0.00,,SCT,0.00,0.00,VWS V14.01,2013-04-18 01:24:00,
2013-04-17 21:29:00,72.8,62.9,30.24,SSW,201,8.0,18.0,71,0.00,,SCT,0.00,0.00,VWS V14.01,2013-04-18 01:29:00,
2013-04-17 21:34:00,72.5,63.0,30.24,SSE,167,9.0,18.0,72,0.00,,SCT,0.00,0.00,VWS V14.01,2013-04-18 01:34:00,
2013-04-17 21:39:00,72.3,62.8,30.25,SSW,198,8.0,18.0,72,0.00,,SCT,0.00,0.00,VWS V14.01,2013-04-18 01:39:00,
2013-04-17 21:44:00,72.2,63.1,30.25,SSW,193,9.0,18.0,73,0.00,,SCT,0.00,0.00,VWS V14.01,2013-04-18 01:44:00,
2013-04-17 21:49:00,72.1,63.0,30.25,SSW,198,3.0,18.0,73,0.00,,SCT,0.00,0.00,VWS V14.01,2013-04-18 01:49:00,
2013-04-17 21:54:00,71.9,62.8,30.25,SSW,196,7.0,9.0,73,0.00,,SCT,0.00,0.00,VWS V14.01,2013-04-18 01:54:00,
2013-04-17 21:59:00,71.8,63.1,30.25,SSW,204,6.0,9.0,74,0.00,,SCT,0.00,0.00,VWS V14.01,2013-04-18 01:59:00,
2013-04-17 22:00:00,72.0,62.9,30.25,SW,214,7.0,18.0,73,0.00,,SCT,0.00,0.00,VWS V14.01,2013-04-18 02:00:00,
2013-04-17 22:04:00,71.6,62.9,30.25,WSW,238,0.0,9.0,74,0.00,,SCT,0.00,0.00,VWS V14.01,2013-04-18 02:04:00,
2013-04-17 22:09:00,71.5,62.8,30.25,SW,215,4.0,9.0,74,0.00,,SCT,0.00,0.00,VWS V14.01,2013-04-18 02:09:00,
2013-04-17 22:14:00,71.3,62.6,30.25,SSW,209,3.0,9.0,74,0.00,,SCT,0.00,0.00,VWS V14.01,2013-04-18 02:14:00,
2013-04-17 22:19:00,71.2,62.9,30.26,SSW,197,0.0,9.0,75,0.00,,SCT,0.00,0.00,VWS V14.01,2013-04-18 02:19:00,
2013-04-17 22:24:00,71.1,62.8,30.26,SSW,197,0.0,9.0,75,0.00,,SCT,0.00,0.00,VWS V14.01,2013-04-18 02:24:00,
2013-04-17 22:29:00,71.0,62.7,30.26,SSW,197,4.0,9.0,75,0.00,,SCT,0.00,0.00,VWS V14.01,2013-04-18 02:29:00,
2013-04-17 22:34:00,71.0,62.7,30.26,SSW,198,6.0,9.0,75,0.00,,SCT,0.00,0.00,VWS V14.01,2013-04-18 02:34:00,
2013-04-17 22:39:00,70.8,62.9,30.26,SSW,205,3.0,9.0,76,0.00,,SCT,0.00,0.00,VWS V14.01,2013-04-18 02:39:00,
2013-04-17 22:44:00,70.7,62.8,30.26,SW,217,3.0,9.0,76,0.00,,SCT,0.00,0.00,VWS V14.01,2013-04-18 02:44:00,
2013-04-17 22:49:00,70.6,62.7,30.27,SSW,198,3.0,9.0,76,0.00,,SCT,0.00,0.00,VWS V14.01,2013-04-18 02:49:00,
2013-04-17 22:54:00,70.5,62.6,30.27,SSW,207,7.0,8.0,76,0.00,,SCT,0.00,0.00,VWS V14.01,2013-04-18 02:54:00,
2013-04-17 22:59:00,70.5,62.6,30.27,SSW,200,4.0,8.0,76,0.00,,SCT,0.00,0.00,VWS V14.01,2013-04-18 02:59:00,
2013-04-17 23:00:00,70.6,62.7,30.27,SSW,209,5.0,9.0,76,0.00,,SCT,0.00,0.00,VWS V14.01,2013-04-18 03:00:00,
2013-04-17 23:04:00,70.4,62.5,30.27,SSW,213,6.0,8.0,76,0.00,,SCT,0.00,0.00,VWS V14.01,2013-04-18 03:04:00,
2013-04-17 23:09:00,70.3,62.4,30.27,SSW,206,5.0,9.0,76,0.00,,SCT,0.00,0.00,VWS V14.01,2013-04-18 03:09:00,
2013-04-17 23:14:00,70.2,62.7,30.27,SSW,198,6.0,9.0,77,0.00,,SCT,0.00,0.00,VWS V14.01,2013-04-18 03:14:00,
2013-04-17 23:19:00,70.0,62.5,30.27,SSW,203,6.0,9.0,77,0.00,,SCT,0.00,0.00,VWS V14.01,2013-04-18 03:19:00,
2013-04-17 23:24:00,69.8,62.3,30.27,SW,215,4.0,11.0,77,0.00,,SCT,0.00,0.00,VWS V14.01,2013-04-18 03:24:00,
2013-04-17 23:29:00,69.6,62.4,30.27,SSW,199,4.0,11.0,78,0.00,,SCT,0.00,0.00,VWS V14.01,2013-04-18 03:29:00,
2013-04-17 23:34:00,69.4,62.2,30.27,SSW,209,4.0,11.0,78,0.00,,SCT,0.00,0.00,VWS V14.01,2013-04-18 03:34:00,
2013-04-17 23:39:00,69.3,62.2,30.27,SSW,213,7.0,11.0,78,0.00,,SCT,0.00,0.00,VWS V14.01,2013-04-18 03:39:00,
2013-04-17 23:44:00,69.3,62.2,30.27,SSW,213,4.0,11.0,78,0.00,,SCT,0.00,0.00,VWS V14.01,2013-04-18 03:44:00,
2013-04-17 23:49:00,69.3,62.2,30.27,SSW,212,6.0,11.0,78,0.00,,SCT,0.00,0.00,VWS V14.01,2013-04-18 03:49:00,
2013-04-17 23:54:00,69.2,62.1,30.27,SW,233,4.0,7.0,78,0.00,,SCT,0.00,0.00,VWS V14.01,2013-04-18 03:54:00,
2013-04-17 23:59:00,69.1,62.0,30.27,SW,227,2.0,9.0,78,0.00,,SCT,0.00,0.00,VWS V14.01,2013-04-18 03:59:00,